Time;durP1;ratioP1;P1;durP2;ratioP2;P2;SDS_P1;SDS_P2;PMS_P1;PMS_P2;Temp;Humidity;BMP_temperature;BMP_pressure;BME280_temperature;BME280_humidity;BME280_pressure;Samples;Min_cycle;Max_cycle;Signal;HPM_P1;HPM_P2
2023/04/04 00:01:26;;;;;;;6.65;2.42;;;1.30;55.00;;;;;;5072888;28;20204;-72
2023/04/04 00:03:53;;;;;;;3.90;2.90;;;1.30;55.30;;;;;;5072824;28;20245;-75
2023/04/04 00:06:21;;;;;;;4.20;2.20;;;1.30;55.30;;;;;;5071062;28;20319;-73
2023/04/04 00:08:49;;;;;;;4.28;2.35;;;1.30;55.50;;;;;;5071721;28;20196;-72
2023/04/04 00:11:17;;;;;;;4.75;2.65;;;1.20;55.60;;;;;;5070793;28;20197;-72
2023/04/04 00:13:44;;;;;;;4.30;2.72;;;1.20;55.70;;;;;;5066640;28;20182;-74
2023/04/04 00:16:12;;;;;;;4.75;2.50;;;1.20;56.10;;;;;;5071473;28;20189;-72
2023/04/04 00:18:39;;;;;;;6.05;3.00;;;1.20;56.20;;;;;;5070940;28;20197;-73
2023/04/04 00:21:06;;;;;;;8.85;2.65;;;1.20;56.40;;;;;;5074074;28;20194;-72
2023/04/04 00:23:33;;;;;;;6.53;2.92;;;1.20;56.80;;;;;;5074339;28;20219;-72
2023/04/04 00:26:01;;;;;;;6.18;2.42;;;1.20;56.90;;;;;;5074362;28;20691;-72
2023/04/04 00:28:28;;;;;;;7.43;3.15;;;1.10;56.50;;;;;;5074369;28;20186;-72
2023/04/04 00:30:55;;;;;;;6.18;2.80;;;1.10;56.30;;;;;;5074492;28;20228;-72
2023/04/04 00:33:22;;;;;;;4.07;2.35;;;1.00;56.30;;;;;;5074247;28;20277;-72
2023/04/04 00:35:50;;;;;;;3.33;2.10;;;1.00;56.70;;;;;;5074490;28;20284;-71
2023/04/04 00:38:17;;;;;;;4.57;3.15;;;1.00;57.30;;;;;;5074249;28;20196;-72
2023/04/04 00:40:46;;;;;;;5.03;2.90;;;1.00;57.50;;;;;;5074429;28;20189;-72
2023/04/04 00:43:18;;;;;;;4.15;2.72;;;0.90;57.00;;;;;;5073966;28;20280;-72
2023/04/04 00:45:46;;;;;;;3.55;2.45;;;0.90;57.10;;;;;;5073988;28;20306;-72
2023/04/04 00:48:13;;;;;;;3.70;2.40;;;0.90;57.30;;;;;;5074017;28;20185;-72
2023/04/04 00:50:40;;;;;;;4.28;2.30;;;0.80;57.70;;;;;;5074146;28;20231;-72
2023/04/04 00:53:07;;;;;;;3.45;2.25;;;0.80;58.30;;;;;;5074149;28;20193;-72
2023/04/04 00:55:37;;;;;;;3.78;2.60;;;0.80;58.60;;;;;;5074000;28;20223;-73
2023/04/04 00:58:04;;;;;;;3.60;2.50;;;0.80;58.30;;;;;;5073890;28;20560;-72
2023/04/04 01:00:34;;;;;;;4.55;2.80;;;0.70;58.00;;;;;;5073824;28;20283;-72
2023/04/04 01:03:01;;;;;;;8.88;3.17;;;0.70;58.10;;;;;;5073838;28;20224;-72
2023/04/04 01:05:28;;;;;;;3.55;2.75;;;0.60;58.00;;;;;;5073403;28;20193;-72
2023/04/04 01:07:56;;;;;;;6.20;3.42;;;0.60;58.50;;;;;;5072930;28;20277;-72
2023/04/04 01:10:23;;;;;;;3.78;2.90;;;0.60;58.30;;;;;;5073497;28;20221;-71
2023/04/04 01:12:50;;;;;;;4.45;3.10;;;0.50;58.30;;;;;;5073445;28;20256;-72
2023/04/04 01:15:17;;;;;;;4.60;2.75;;;0.50;58.60;;;;;;5073554;28;20279;-72
2023/04/04 01:17:45;;;;;;;4.65;2.60;;;0.40;58.60;;;;;;5073268;28;20636;-71
2023/04/04 01:20:16;;;;;;;4.70;2.80;;;0.40;58.80;;;;;;5073133;28;20227;-71
2023/04/04 01:22:47;;;;;;;6.10;2.85;;;0.30;58.60;;;;;;5073365;28;20588;-71
2023/04/04 01:25:15;;;;;;;5.75;2.88;;;0.20;58.80;;;;;;5073281;28;20197;-71
2023/04/04 01:27:43;;;;;;;5.13;2.88;;;0.30;58.90;;;;;;5073255;28;20217;-71
2023/04/04 01:30:11;;;;;;;4.38;2.85;;;0.30;58.80;;;;;;5073225;28;20226;-71
2023/04/04 01:32:45;;;;;;;6.10;4.70;;;0.20;58.90;;;;;;5073233;28;20189;-71
2023/04/04 01:35:21;;;;;;;6.05;3.78;;;0.20;59.20;;;;;;5073301;28;20276;-73
2023/04/04 01:37:55;;;;;;;6.97;3.25;;;0.10;59.40;;;;;;5073133;28;20185;-71
2023/04/04 01:40:25;;;;;;;6.72;3.55;;;0.10;59.70;;;;;;5073187;28;20241;-71
2023/04/04 01:42:55;;;;;;;4.95;2.90;;;0.10;60.20;;;;;;5073002;28;20241;-71
2023/04/04 01:45:23;;;;;;;4.90;3.13;;;0.10;60.70;;;;;;5073180;28;20726;-71
2023/04/04 01:47:50;;;;;;;6.03;3.00;;;0.10;60.10;;;;;;5072998;28;20220;-71
2023/04/04 01:50:17;;;;;;;5.00;2.63;;;0.00;59.60;;;;;;5073191;28;20535;-71
2023/04/04 01:52:44;;;;;;;5.25;3.40;;;0.00;59.90;;;;;;5072932;28;20279;-71
2023/04/04 01:55:11;;;;;;;6.55;3.15;;;0.00;59.90;;;;;;5072774;28;20275;-73
2023/04/04 01:57:38;;;;;;;11.65;2.95;;;-0.10;59.90;;;;;;5072621;28;20628;-71
2023/04/04 02:00:08;;;;;;;6.50;3.42;;;-0.10;60.70;;;;;;5072806;28;20379;-71
2023/04/04 02:02:35;;;;;;;5.22;2.85;;;-0.20;61.10;;;;;;5072631;28;20208;-74
2023/04/04 02:05:03;;;;;;;6.18;3.40;;;-0.20;61.80;;;;;;5073001;28;20722;-72
2023/04/04 02:07:30;;;;;;;5.80;3.35;;;-0.20;61.70;;;;;;5072833;28;20219;-71
2023/04/04 02:09:57;;;;;;;8.80;3.03;;;-0.20;62.00;;;;;;5072837;28;20221;-71
2023/04/04 02:12:24;;;;;;;5.50;3.65;;;-0.20;62.50;;;;;;5072813;28;20230;-71
2023/04/04 02:14:51;;;;;;;4.32;2.72;;;-0.20;62.70;;;;;;5072913;28;20199;-71
2023/04/04 02:17:19;;;;;;;6.55;2.95;;;-0.20;62.80;;;;;;5073246;28;20631;-71
2023/04/04 02:19:46;;;;;;;5.28;2.33;;;-0.20;63.20;;;;;;5076731;28;20274;-71
2023/04/04 02:22:13;;;;;;;4.53;2.85;;;-0.20;63.40;;;;;;5076924;28;20191;-72
2023/04/04 02:24:40;;;;;;;4.30;2.53;;;-0.20;62.60;;;;;;5076410;28;20278;-72
2023/04/04 02:27:07;;;;;;;7.30;3.70;;;-0.30;62.30;;;;;;5076691;28;20223;-72
2023/04/04 02:29:34;;;;;;;3.20;2.03;;;-0.30;62.40;;;;;;5076646;28;20189;-72
2023/04/04 02:32:01;;;;;;;4.50;2.33;;;-0.30;63.00;;;;;;5076644;28;20302;-72
2023/04/04 02:34:29;;;;;;;5.63;2.40;;;-0.30;63.10;;;;;;5076348;28;20617;-74
2023/04/04 02:36:56;;;;;;;6.35;3.10;;;-0.30;62.20;;;;;;5076241;28;20196;-72
2023/04/04 02:39:23;;;;;;;6.53;2.70;;;-0.30;61.90;;;;;;5076435;28;20188;-72
2023/04/04 02:41:50;;;;;;;5.13;2.88;;;-0.40;62.30;;;;;;5076394;28;20183;-71
2023/04/04 02:44:17;;;;;;;6.28;2.60;;;-0.50;62.70;;;;;;5076254;28;20275;-72
2023/04/04 02:46:44;;;;;;;4.70;2.90;;;-0.50;63.10;;;;;;5076071;28;20298;-72
2023/04/04 02:49:11;;;;;;;6.93;3.50;;;-0.60;63.20;;;;;;5076344;28;20227;-72
2023/04/04 02:51:39;;;;;;;5.28;2.80;;;-0.60;63.30;;;;;;5076321;28;20279;-72
2023/04/04 02:54:06;;;;;;;6.43;3.08;;;-0.60;63.90;;;;;;5076216;28;20256;-72
2023/04/04 02:56:34;;;;;;;3.88;2.70;;;-0.60;64.90;;;;;;5076356;28;20697;-72
2023/04/04 02:59:03;;;;;;;3.72;2.30;;;-0.60;65.40;;;;;;5075671;28;20642;-72
2023/04/04 03:01:31;;;;;;;3.53;2.35;;;-0.60;65.30;;;;;;5076258;28;20189;-72
2023/04/04 03:03:58;;;;;;;6.22;3.17;;;-0.50;65.00;;;;;;5075956;28;20196;-72
2023/04/04 03:06:24;;;;;;;6.80;3.03;;;-0.60;65.10;;;;;;5076079;28;20218;-72
2023/04/04 03:08:53;;;;;;;4.75;3.05;;;-0.60;65.70;;;;;;5075563;28;20264;-71
2023/04/04 03:11:20;;;;;;;4.15;2.60;;;-0.60;66.10;;;;;;5075810;28;20234;-72
2023/04/04 03:13:47;;;;;;;3.72;2.15;;;-0.60;66.20;;;;;;5075772;28;20570;-72
2023/04/04 03:16:16;;;;;;;5.10;2.58;;;-0.60;66.30;;;;;;5075700;28;20191;-72
2023/04/04 03:18:43;;;;;;;4.93;2.42;;;-0.60;66.60;;;;;;5075421;28;20543;-72
2023/04/04 03:21:10;;;;;;;7.43;2.45;;;-0.60;66.40;;;;;;5075711;28;20277;-72
2023/04/04 03:23:37;;;;;;;4.50;2.15;;;-0.60;66.50;;;;;;5075718;28;20191;-72
2023/04/04 03:26:05;;;;;;;4.97;2.65;;;-0.60;67.00;;;;;;5075598;28;20708;-72
2023/04/04 03:28:32;;;;;;;6.05;2.65;;;-0.70;66.60;;;;;;5074733;28;20253;-72
2023/04/04 03:31:04;;;;;;;5.35;2.97;;;-0.70;66.40;;;;;;5074729;28;20187;-72
2023/04/04 03:33:31;;;;;;;4.45;2.63;;;-0.70;65.40;;;;;;5075775;28;20686;-71
2023/04/04 03:35:59;;;;;;;5.97;2.75;;;-0.80;65.10;;;;;;5075575;28;20187;-71
2023/04/04 03:38:26;;;;;;;4.43;3.03;;;-0.80;65.00;;;;;;5075563;28;20290;-72
2023/04/04 03:41:02;;;;;;;5.22;3.70;;;-0.80;64.40;;;;;;5075287;28;20578;-71
2023/04/04 03:43:34;;;;;;;6.72;3.53;;;-0.90;64.30;;;;;;5074715;28;20659;-71
2023/04/04 03:46:01;;;;;;;11.93;4.28;;;-0.90;64.50;;;;;;5075356;28;20503;-71
2023/04/04 03:48:28;;;;;;;8.32;4.18;;;-1.00;64.90;;;;;;5075034;28;20217;-71
2023/04/04 03:50:57;;;;;;;6.93;4.78;;;-1.00;66.10;;;;;;5075262;28;20237;-71
2023/04/04 03:53:24;;;;;;;11.43;3.92;;;-1.00;65.60;;;;;;5075091;28;20186;-71
2023/04/04 03:55:51;;;;;;;9.13;3.78;;;-1.00;65.60;;;;;;5074954;28;20187;-73
2023/04/04 03:58:18;;;;;;;8.65;3.30;;;-1.10;66.70;;;;;;5074845;28;20278;-73
2023/04/04 04:00:47;;;;;;;5.50;2.72;;;-1.10;67.10;;;;;;5074895;28;20284;-71
2023/04/04 04:03:14;;;;;;;8.85;4.35;;;-1.00;68.10;;;;;;5074937;28;20185;-71
2023/04/04 04:05:41;;;;;;;4.70;2.50;;;-1.00;68.40;;;;;;5075149;28;20188;-71
2023/04/04 04:08:08;;;;;;;6.32;2.80;;;-0.90;68.70;;;;;;5075196;28;20271;-71
2023/04/04 04:10:35;;;;;;;5.55;3.00;;;-1.00;69.00;;;;;;5074842;28;20308;-72
2023/04/04 04:13:02;;;;;;;4.03;2.90;;;-0.90;69.00;;;;;;5074788;28;20636;-71
2023/04/04 04:15:29;;;;;;;3.67;2.33;;;-0.90;69.20;;;;;;5074900;28;20282;-72
2023/04/04 04:17:57;;;;;;;5.28;3.03;;;-0.90;69.70;;;;;;5074874;28;20190;-71
2023/04/04 04:20:24;;;;;;;6.28;3.25;;;-0.90;69.40;;;;;;5074981;28;20240;-72
2023/04/04 04:22:51;;;;;;;5.75;2.67;;;-0.90;68.50;;;;;;5074643;28;20222;-71
2023/04/04 04:25:18;;;;;;;4.43;3.10;;;-0.90;68.80;;;;;;5074145;28;20681;-71
2023/04/04 04:27:45;;;;;;;4.55;2.67;;;-0.90;69.50;;;;;;5074367;28;20218;-72
2023/04/04 04:30:13;;;;;;;5.35;2.67;;;-0.90;70.30;;;;;;5074507;28;20284;-72
2023/04/04 04:32:40;;;;;;;4.97;3.00;;;-0.90;70.70;;;;;;5074627;28;20191;-72
2023/04/04 04:35:09;;;;;;;6.50;3.30;;;-0.90;71.30;;;;;;5074402;28;20194;-73
2023/04/04 04:37:36;;;;;;;5.60;3.08;;;-0.90;71.30;;;;;;5074564;28;20190;-73
2023/04/04 04:40:03;;;;;;;7.75;3.22;;;-0.90;71.20;;;;;;5074191;28;20278;-73
2023/04/04 04:42:30;;;;;;;5.43;3.47;;;-0.80;71.10;;;;;;5074397;28;20526;-73
2023/04/04 04:44:57;;;;;;;6.45;3.60;;;-0.80;70.60;;;;;;5073617;28;20282;-73
2023/04/04 04:47:24;;;;;;;4.95;2.63;;;-0.80;70.30;;;;;;5074063;28;20285;-73
2023/04/04 04:49:51;;;;;;;6.60;3.50;;;-0.80;70.10;;;;;;5073951;28;20638;-73
2023/04/04 04:52:20;;;;;;;3.92;2.30;;;-0.80;69.80;;;;;;5074067;28;20244;-72
2023/04/04 04:54:47;;;;;;;7.40;3.25;;;-0.80;69.60;;;;;;5073938;28;20500;-73
2023/04/04 04:57:14;;;;;;;5.25;3.13;;;-0.80;69.50;;;;;;5074099;28;20192;-73
2023/04/04 04:59:41;;;;;;;3.40;2.45;;;-0.80;69.70;;;;;;5073900;28;20260;-73
2023/04/04 05:02:08;;;;;;;6.55;3.15;;;-0.70;69.70;;;;;;5073790;28;20598;-73
2023/04/04 05:04:35;;;;;;;4.35;2.55;;;-0.80;69.80;;;;;;5073512;28;20616;-73
2023/04/04 05:07:02;;;;;;;6.75;2.90;;;-0.70;70.00;;;;;;5073980;28;20350;-73
2023/04/04 05:09:30;;;;;;;3.70;2.40;;;-0.80;69.80;;;;;;5073309;28;20333;-73
2023/04/04 05:11:57;;;;;;;5.88;2.63;;;-0.70;70.10;;;;;;5073592;28;20196;-73
2023/04/04 05:14:24;;;;;;;5.85;2.85;;;-0.60;70.20;;;;;;5073692;28;20301;-73
2023/04/04 05:16:51;;;;;;;5.28;2.00;;;-0.60;70.00;;;;;;5068979;28;20279;-74
2023/04/04 05:19:18;;;;;;;5.63;2.80;;;-0.50;69.70;;;;;;5073106;28;20196;-73
2023/04/04 05:21:45;;;;;;;4.32;2.50;;;-0.50;69.60;;;;;;5072989;28;20191;-72
2023/04/04 05:24:12;;;;;;;4.35;2.25;;;-0.40;69.50;;;;;;5072717;28;20187;-72
2023/04/04 05:26:41;;;;;;;4.97;3.22;;;-0.40;69.50;;;;;;5073367;28;20286;-73
2023/04/04 05:29:08;;;;;;;7.18;2.90;;;-0.30;69.60;;;;;;5073205;28;20255;-72
2023/04/04 05:31:34;;;;;;;6.93;2.80;;;-0.20;69.50;;;;;;5073235;28;20284;-73
2023/04/04 05:34:07;;;;;;;5.15;3.15;;;-0.20;69.60;;;;;;5073439;28;20590;-72
2023/04/04 05:36:37;;;;;;;6.25;3.30;;;-0.10;69.50;;;;;;5073496;28;20196;-72
2023/04/04 05:39:08;;;;;;;3.85;2.63;;;0.00;69.40;;;;;;5073478;28;20227;-72
2023/04/04 05:41:35;;;;;;;5.70;2.50;;;0.10;69.30;;;;;;5073432;28;20638;-72
2023/04/04 05:44:03;;;;;;;3.72;2.30;;;0.20;69.00;;;;;;5073154;28;20687;-72
2023/04/04 05:46:30;;;;;;;8.73;4.00;;;0.30;68.70;;;;;;5073495;28;20203;-72
2023/04/04 05:48:57;;;;;;;7.63;4.03;;;0.40;68.60;;;;;;5073196;28;20259;-73
2023/04/04 05:51:24;;;;;;;8.75;3.05;;;0.50;68.90;;;;;;5067861;28;20318;-72
2023/04/04 05:53:51;;;;;;;3.80;3.25;;;0.50;68.70;;;;;;5072517;28;20215;-72
2023/04/04 05:56:18;;;;;;;6.28;3.30;;;0.60;68.70;;;;;;5071546;28;20192;-72
2023/04/04 05:58:45;;;;;;;4.65;3.17;;;0.70;68.60;;;;;;5065562;28;20276;-73
2023/04/04 06:01:14;;;;;;;4.80;2.35;;;0.80;68.40;;;;;;5061141;28;20182;-72
2023/04/04 06:03:41;;;;;;;4.55;2.90;;;0.90;68.20;;;;;;5073032;28;20193;-72
2023/04/04 06:06:08;;;;;;;7.60;2.80;;;1.10;67.90;;;;;;5073236;28;20285;-72
2023/04/04 06:08:34;;;;;;;13.40;4.07;;;1.20;67.60;;;;;;5054406;28;20308;-73
2023/04/04 06:11:01;;;;;;;8.25;3.10;;;1.30;67.50;;;;;;5052756;28;20280;-72
2023/04/04 06:13:28;;;;;;;4.93;2.47;;;1.40;66.80;;;;;;5060199;28;20278;-72
2023/04/04 06:15:55;;;;;;;6.75;2.92;;;1.50;66.20;;;;;;5073065;28;20198;-72
2023/04/04 06:18:23;;;;;;;4.65;2.72;;;1.60;64.80;;;;;;5072925;28;20197;-72
2023/04/04 06:20:50;;;;;;;6.50;3.17;;;1.70;63.50;;;;;;5072783;28;20280;-72
2023/04/04 06:23:17;;;;;;;6.00;3.42;;;1.80;63.70;;;;;;5072916;28;20194;-72
2023/04/04 06:25:44;;;;;;;3.90;2.80;;;1.90;63.90;;;;;;5072994;28;20262;-73
2023/04/04 06:28:14;;;;;;;6.70;3.20;;;1.90;63.50;;;;;;5072661;28;20217;-73
2023/04/04 06:30:41;;;;;;;6.78;3.10;;;2.00;63.30;;;;;;5072698;28;20190;-73
2023/04/04 06:33:08;;;;;;;7.95;2.75;;;2.20;62.70;;;;;;5072555;28;20680;-74
2023/04/04 06:35:36;;;;;;;8.05;3.10;;;2.30;61.70;;;;;;5072653;28;20577;-73
2023/04/04 06:38:04;;;;;;;6.82;2.72;;;2.30;60.80;;;;;;5072589;28;20211;-73
2023/04/04 06:40:31;;;;;;;4.93;3.30;;;2.50;59.50;;;;;;5072886;28;20190;-73
2023/04/04 06:42:58;;;;;;;4.20;2.85;;;2.60;59.80;;;;;;5068856;28;20717;-75
2023/04/04 06:45:26;;;;;;;5.00;2.95;;;2.70;59.60;;;;;;5069808;28;20182;-73
2023/04/04 06:47:54;;;;;;;5.90;3.97;;;2.90;59.40;;;;;;5071460;28;20186;-72
2023/04/04 06:50:22;;;;;;;5.00;3.03;;;3.00;58.20;;;;;;5070513;28;20645;-73
2023/04/04 06:52:54;;;;;;;6.28;2.85;;;3.20;57.10;;;;;;5052210;28;20585;-72
2023/04/04 06:55:26;;;;;;;4.90;2.80;;;3.20;55.00;;;;;;5054517;28;20534;-74
2023/04/04 06:57:53;;;;;;;5.22;2.50;;;3.30;55.20;;;;;;5070413;28;20193;-72
2023/04/04 07:00:21;;;;;;;7.22;3.47;;;3.40;54.40;;;;;;5070731;28;20439;-73
2023/04/04 07:02:48;;;;;;;13.02;3.67;;;3.50;54.50;;;;;;5052009;28;20277;-73
2023/04/04 07:05:16;;;;;;;3.97;2.53;;;3.60;54.70;;;;;;5056043;28;20638;-73
2023/04/04 07:07:43;;;;;;;9.30;2.50;;;3.80;54.10;;;;;;5075594;28;20611;-73
2023/04/04 07:10:12;;;;;;;5.30;3.45;;;4.10;53.80;;;;;;5075072;28;20213;-73
2023/04/04 07:12:40;;;;;;;6.38;2.95;;;4.30;51.50;;;;;;5075561;28;20255;-74
2023/04/04 07:15:08;;;;;;;7.00;3.83;;;4.50;50.20;;;;;;5074656;28;20186;-72
2023/04/04 07:17:37;;;;;;;5.47;2.72;;;4.80;48.80;;;;;;5075323;28;20186;-72
2023/04/04 07:20:09;;;;;;;4.80;2.65;;;5.00;49.60;;;;;;5073579;28;20255;-72
2023/04/04 07:22:38;;;;;;;4.93;3.10;;;5.20;48.00;;;;;;5075748;28;20281;-73
2023/04/04 07:25:06;;;;;;;5.90;3.58;;;5.50;47.10;;;;;;5070775;28;20717;-74
2023/04/04 07:27:35;;;;;;;6.00;2.42;;;5.90;46.80;;;;;;5070790;28;20315;-73
2023/04/04 07:30:02;;;;;;;4.90;2.50;;;6.30;44.50;;;;;;5073670;28;20228;-73
2023/04/04 07:32:29;;;;;;;6.80;3.50;;;7.00;43.00;;;;;;5074894;28;20597;-74
2023/04/04 07:34:56;;;;;;;6.07;2.63;;;8.40;40.40;;;;;;5059394;28;20187;-73
2023/04/04 07:37:25;;;;;;;4.32;3.22;;;11.10;35.20;;;;;;5073879;28;20540;-73
2023/04/04 07:39:52;;;;;;;5.68;2.80;;;13.70;30.20;;;;;;5074280;28;20640;-74
2023/04/04 07:42:22;;;;;;;4.93;3.00;;;16.00;27.30;;;;;;5074325;28;20194;-73
2023/04/04 07:44:51;;;;;;;5.37;2.60;;;17.50;25.00;;;;;;5055944;28;20302;-72
2023/04/04 07:47:21;;;;;;;3.80;2.30;;;19.20;23.40;;;;;;5074906;28;20509;-71
2023/04/04 07:49:48;;;;;;;4.80;2.70;;;20.60;22.00;;;;;;5075151;28;20986;-71
2023/04/04 07:52:15;;;;;;;4.97;2.70;;;22.10;19.30;;;;;;5074067;28;20436;-71
2023/04/04 07:54:46;;;;;;;5.40;3.00;;;23.30;19.10;;;;;;5075029;28;20455;-72
2023/04/04 07:57:13;;;;;;;4.20;2.00;;;25.00;18.40;;;;;;5074744;28;20518;-73
2023/04/04 07:59:40;;;;;;;5.13;2.50;;;26.50;16.30;;;;;;5074971;28;20476;-72
2023/04/04 08:02:08;;;;;;;4.40;2.60;;;27.40;14.60;;;;;;5075068;28;20774;-73
2023/04/04 08:04:35;;;;;;;3.17;2.17;;;27.80;13.30;;;;;;5075175;28;20475;-72
2023/04/04 08:07:02;;;;;;;3.57;2.77;;;28.20;12.60;;;;;;5075219;28;20439;-73
2023/04/04 08:09:33;;;;;;;3.47;2.40;;;27.50;13.00;;;;;;5074692;28;20491;-72
2023/04/04 08:12:00;;;;;;;5.00;2.50;;;28.30;12.80;;;;;;5075261;28;20451;-73
2023/04/04 08:14:27;;;;;;;4.67;2.30;;;29.60;12.30;;;;;;5074569;28;20440;-72
2023/04/04 08:16:54;;;;;;;3.40;2.00;;;30.30;11.20;;;;;;5073992;28;20907;-72
2023/04/04 08:19:22;;;;;;;3.20;2.00;;;30.50;10.60;;;;;;5074723;28;20516;-72
2023/04/04 08:21:50;;;;;;;6.80;2.37;;;30.30;9.60;;;;;;5074862;28;20476;-72
2023/04/04 08:24:18;;;;;;;3.43;2.00;;;27.40;10.40;;;;;;5074614;28;20451;-72
2023/04/04 08:26:45;;;;;;;5.13;2.67;;;25.90;12.20;;;;;;5074422;28;20443;-72
2023/04/04 08:29:12;;;;;;;3.83;2.30;;;25.10;12.40;;;;;;5074683;28;20438;-73
2023/04/04 08:31:39;;;;;;;4.27;2.70;;;26.70;12.00;;;;;;5074437;28;20472;-73
2023/04/04 08:34:07;;;;;;;4.27;2.97;;;26.00;12.10;;;;;;5074518;28;20432;-73
2023/04/04 08:36:35;;;;;;;4.10;2.00;;;27.70;11.20;;;;;;5074685;28;20439;-73
2023/04/04 08:39:02;;;;;;;3.43;2.23;;;28.90;10.90;;;;;;5074056;28;20485;-72
2023/04/04 08:41:31;;;;;;;3.70;2.20;;;29.10;9.40;;;;;;5074409;28;20452;-72
2023/04/04 08:44:03;;;;;;;4.60;2.47;;;28.90;10.00;;;;;;5074270;28;20474;-72
2023/04/04 08:46:30;;;;;;;4.30;2.10;;;30.00;8.80;;;;;;5074319;28;20531;-73
2023/04/04 08:48:59;;;;;;;3.50;2.10;;;29.30;8.40;;;;;;5074152;28;20497;-73
2023/04/04 08:51:28;;;;;;;3.33;2.00;;;28.60;8.90;;;;;;5073995;28;20448;-72
2023/04/04 08:53:57;;;;;;;4.40;2.20;;;26.50;9.60;;;;;;5073671;28;20489;-72
2023/04/04 08:56:25;;;;;;;4.30;2.57;;;25.90;9.70;;;;;;5073879;28;20428;-72
2023/04/04 08:58:52;;;;;;;6.10;2.87;;;24.00;10.40;;;;;;5073602;28;20472;-72
2023/04/04 09:01:19;;;;;;;4.27;2.20;;;24.40;10.90;;;;;;5073943;28;20478;-72
2023/04/04 09:03:49;;;;;;;4.03;2.00;;;24.20;11.20;;;;;;5073869;28;20440;-72
2023/04/04 09:06:18;;;;;;;3.97;2.00;;;25.50;11.20;;;;;;5074072;28;20443;-72
2023/04/04 09:08:45;;;;;;;5.17;2.20;;;27.80;11.30;;;;;;5073875;28;20440;-72
2023/04/04 09:11:15;;;;;;;4.40;2.50;;;30.20;9.90;;;;;;5073757;28;20440;-73
2023/04/04 09:13:46;;;;;;;3.03;2.00;;;32.40;9.20;;;;;;5073642;28;20428;-73
2023/04/04 09:16:13;;;;;;;3.70;2.67;;;33.30;7.20;;;;;;5073792;28;20490;-73
2023/04/04 09:18:40;;;;;;;4.00;2.20;;;34.40;7.40;;;;;;5073524;28;20923;-73
2023/04/04 09:21:10;;;;;;;4.90;2.83;;;35.60;6.70;;;;;;5073718;28;20784;-74
2023/04/04 09:23:38;;;;;;;3.23;2.40;;;36.60;6.20;;;;;;5073439;28;20904;-73
2023/04/04 09:26:05;;;;;;;2.50;1.77;;;37.40;5.10;;;;;;5073054;28;20502;-74
2023/04/04 09:28:35;;;;;;;4.43;2.60;;;37.60;5.10;;;;;;5072671;28;20436;-74
2023/04/04 09:31:04;;;;;;;6.40;2.20;;;37.60;4.40;;;;;;5073397;28;20443;-74
2023/04/04 09:33:32;;;;;;;4.20;2.10;;;36.20;4.80;;;;;;5073555;28;20538;-73
2023/04/04 09:36:02;;;;;;;3.70;2.17;;;36.20;5.30;;;;;;5073362;28;20448;-73
2023/04/04 09:38:30;;;;;;;3.93;2.67;;;36.00;5.50;;;;;;5073016;28;20505;-73
2023/04/04 09:40:57;;;;;;;3.50;2.17;;;34.50;5.10;;;;;;5073256;28;20436;-73
2023/04/04 09:43:25;;;;;;;4.27;2.30;;;33.90;5.90;;;;;;5072695;28;20436;-73
2023/04/04 09:45:54;;;;;;;4.10;2.83;;;35.40;6.50;;;;;;5073226;28;20431;-73
2023/04/04 09:48:26;;;;;;;6.53;2.60;;;37.00;6.00;;;;;;5073069;28;20494;-74
2023/04/04 09:50:53;;;;;;;4.33;3.23;;;37.70;4.70;;;;;;5073012;28;20439;-73
2023/04/04 09:53:20;;;;;;;3.70;2.10;;;36.80;4.60;;;;;;5073185;28;20448;-73
2023/04/04 09:55:51;;;;;;;3.90;2.40;;;36.40;4.80;;;;;;5072659;28;20900;-73
2023/04/04 09:58:23;;;;;;;3.90;2.47;;;36.00;5.20;;;;;;5073263;28;20440;-73
2023/04/04 10:00:55;;;;;;;3.33;1.97;;;37.00;5.20;;;;;;5072991;28;20874;-73
2023/04/04 10:03:23;;;;;;;4.43;2.60;;;37.50;4.20;;;;;;5063795;28;20447;-74
2023/04/04 10:06:03;;;;;;;3.50;2.60;;;38.00;4.90;;;;;;5070645;28;20436;-73
2023/04/04 10:08:30;;;;;;;4.83;2.50;;;38.80;4.10;;;;;;5072064;28;20450;-73
2023/04/04 10:11:00;;;;;;;5.53;2.97;;;38.60;4.00;;;;;;5071802;28;20919;-73
2023/04/04 10:13:29;;;;;;;4.63;2.30;;;38.50;4.10;;;;;;5072080;28;20447;-74
2023/04/04 10:15:59;;;;;;;7.90;2.60;;;37.40;4.40;;;;;;5072460;28;20530;-73
2023/04/04 10:18:27;;;;;;;4.13;2.10;;;37.10;4.50;;;;;;5072737;28;20466;-74
2023/04/04 10:20:55;;;;;;;6.60;2.70;;;34.60;4.80;;;;;;5072814;28;20548;-73
2023/04/04 10:23:25;;;;;;;4.43;2.20;;;33.70;5.20;;;;;;5072789;28;20436;-73
2023/04/04 10:25:52;;;;;;;4.40;2.93;;;34.40;5.10;;;;;;5072669;28;20574;-74
2023/04/04 10:28:20;;;;;;;4.97;2.57;;;35.50;5.40;;;;;;5072657;28;20490;-74
2023/04/04 10:30:51;;;;;;;4.27;2.60;;;35.60;4.80;;;;;;5072640;28;20444;-74
2023/04/04 10:33:27;;;;;;;3.23;2.10;;;32.60;4.90;;;;;;5072870;28;20436;-73
2023/04/04 10:35:59;;;;;;;7.30;2.40;;;31.20;5.50;;;;;;5072867;28;20440;-73
2023/04/04 10:38:30;;;;;;;6.00;2.60;;;29.40;6.60;;;;;;5073593;28;20470;-73
2023/04/04 10:41:00;;;;;;;3.30;2.40;;;31.10;7.30;;;;;;5076610;28;20490;-73
2023/04/04 10:43:32;;;;;;;5.50;2.73;;;33.50;7.00;;;;;;5076640;28;20432;-73
2023/04/04 10:46:02;;;;;;;4.47;2.80;;;34.80;6.20;;;;;;5076157;28;20440;-73
2023/04/04 10:48:30;;;;;;;4.33;2.97;;;34.90;5.60;;;;;;5075368;28;20439;-74
2023/04/04 10:50:58;;;;;;;3.90;2.53;;;36.10;6.00;;;;;;5074461;28;20529;-73
2023/04/04 10:53:26;;;;;;;3.97;2.53;;;37.40;5.50;;;;;;5074618;28;21016;-73
2023/04/04 10:55:53;;;;;;;5.60;3.00;;;38.40;5.30;;;;;;5072620;28;20443;-73
2023/04/04 10:58:22;;;;;;;3.63;2.53;;;38.80;4.20;;;;;;5073305;28;20939;-74
2023/04/04 11:00:51;;;;;;;4.00;2.67;;;39.00;4.10;;;;;;5075580;28;20483;-73
2023/04/04 11:03:18;;;;;;;3.87;2.60;;;39.10;4.20;;;;;;5075386;28;20440;-73
2023/04/04 11:05:47;;;;;;;4.10;2.63;;;39.10;3.80;;;;;;5074512;28;20432;-73
2023/04/04 11:08:18;;;;;;;4.37;2.47;;;38.80;4.40;;;;;;5074148;28;20439;-73
2023/04/04 11:10:48;;;;;;;3.13;2.40;;;36.40;3.80;;;;;;5075462;28;20567;-73
2023/04/04 11:13:17;;;;;;;5.60;2.13;;;35.70;5.10;;;;;;5074135;28;20435;-73
2023/04/04 11:15:53;;;;;;;4.40;2.60;;;36.20;4.70;;;;;;5075247;28;20440;-73
2023/04/04 11:18:22;;;;;;;3.67;2.50;;;37.20;4.70;;;;;;5071889;28;20473;-74
2023/04/04 11:20:50;;;;;;;3.93;2.70;;;38.10;4.50;;;;;;5074674;28;20973;-73
2023/04/04 11:23:22;;;;;;;5.60;2.50;;;37.90;4.30;;;;;;5074859;28;20439;-74
2023/04/04 11:25:52;;;;;;;5.13;2.63;;;38.10;4.40;;;;;;5073736;28;20955;-74
2023/04/04 11:28:44;;;;;;;3.17;2.20;;;38.10;4.10;;;;;;5074995;28;20532;-73
2023/04/04 11:31:24;;;;;;;4.13;2.80;;;36.50;4.30;;;;;;5075489;28;20447;-74
2023/04/04 11:33:56;;;;;;;5.70;2.97;;;37.20;4.90;;;;;;5075666;28;20474;-74
2023/04/04 11:36:56;;;;;;;4.20;2.73;;;37.60;4.40;;;;;;5075559;28;20428;-75
2023/04/04 11:39:29;;;;;;;3.23;2.43;;;37.40;4.40;;;;;;5075633;28;20451;-75
2023/04/04 11:42:02;;;;;;;4.43;2.53;;;37.80;5.20;;;;;;5075357;28;20472;-74
2023/04/04 11:44:30;;;;;;;4.73;3.53;;;38.30;4.60;;;;;;5075459;28;20432;-74
2023/04/04 11:47:02;;;;;;;4.37;2.80;;;38.60;4.00;;;;;;5073534;28;20523;-74
2023/04/04 11:49:31;;;;;;;4.00;2.67;;;37.50;3.70;;;;;;5075206;28;20440;-74
2023/04/04 11:52:03;;;;;;;3.90;2.53;;;34.70;3.50;;;;;;5074969;28;20428;-74
2023/04/04 11:54:31;;;;;;;3.77;2.43;;;33.00;4.80;;;;;;5075405;28;20487;-74
2023/04/04 11:56:58;;;;;;;4.10;2.83;;;33.70;5.80;;;;;;5075225;28;20952;-74
2023/04/04 11:59:26;;;;;;;3.47;2.57;;;34.60;5.50;;;;;;5075186;28;20497;-74
2023/04/04 12:01:54;;;;;;;5.00;2.60;;;35.00;5.30;;;;;;5075166;28;20455;-74
2023/04/04 12:04:23;;;;;;;4.13;2.73;;;35.10;5.20;;;;;;5075187;28;20444;-74
2023/04/04 12:06:52;;;;;;;4.80;2.77;;;34.50;5.00;;;;;;5074797;28;20436;-74
2023/04/04 12:09:22;;;;;;;4.10;2.50;;;34.20;4.90;;;;;;5074887;28;20525;-74
2023/04/04 12:11:50;;;;;;;3.97;2.67;;;33.30;5.80;;;;;;5074909;28;20489;-74
2023/04/04 12:14:18;;;;;;;5.53;3.47;;;31.40;4.90;;;;;;5074573;28;20436;-73
2023/04/04 12:16:48;;;;;;;5.23;2.90;;;29.90;6.50;;;;;;5074931;28;20472;-74
2023/04/04 12:19:15;;;;;;;5.60;3.37;;;30.30;7.00;;;;;;5075101;28;20468;-74
2023/04/04 12:21:42;;;;;;;4.27;2.83;;;30.70;6.60;;;;;;5074550;28;20487;-74
2023/04/04 12:24:10;;;;;;;4.10;2.57;;;30.40;6.10;;;;;;5074870;28;20441;-73
2023/04/04 12:26:41;;;;;;;4.90;2.60;;;30.10;6.20;;;;;;5074570;28;20573;-74
2023/04/04 12:29:09;;;;;;;4.53;2.60;;;29.70;6.40;;;;;;5074516;28;20887;-74
2023/04/04 12:31:39;;;;;;;4.40;2.80;;;28.60;6.60;;;;;;5074529;28;20474;-73
2023/04/04 12:34:07;;;;;;;4.10;2.77;;;27.80;7.20;;;;;;5074681;28;20832;-74
2023/04/04 12:36:38;;;;;;;5.33;3.43;;;27.10;7.80;;;;;;5074674;28;20436;-73
2023/04/04 12:39:07;;;;;;;3.73;2.43;;;26.40;7.50;;;;;;5074195;28;20486;-73
2023/04/04 12:41:34;;;;;;;3.70;2.17;;;25.60;9.00;;;;;;5074367;28;20877;-73
2023/04/04 12:44:04;;;;;;;4.00;2.77;;;25.10;9.60;;;;;;5074341;28;20436;-73
2023/04/04 12:46:38;;;;;;;3.40;2.40;;;24.40;8.80;;;;;;5074432;28;20848;-73
2023/04/04 12:49:07;;;;;;;5.37;3.13;;;23.80;9.50;;;;;;5074307;28;20518;-73
2023/04/04 12:51:36;;;;;;;4.73;3.00;;;22.90;10.20;;;;;;5073891;28;20861;-73
2023/04/04 12:54:05;;;;;;;3.70;2.40;;;22.10;10.20;;;;;;5074056;28;20467;-73
2023/04/04 12:56:32;;;;;;;8.47;3.27;;;21.30;10.50;;;;;;5074171;28;20607;-73
2023/04/04 12:59:04;;;;;;;4.87;2.70;;;20.70;11.20;;;;;;5073682;28;20438;-73